Time;durP1;ratioP1;P1;durP2;ratioP2;P2;SDS_P1;SDS_P2;PMS_P1;PMS_P2;Temp;Humidity;BMP_temperature;BMP_pressure;BME280_temperature;BME280_humidity;BME280_pressure;Samples;Min_cycle;Max_cycle;Signal;HPM_P1;HPM_P2
2021/12/01 00:01:40;;;;;;;5.00;2.20;;;4.10;99.90;;;;;;5094945;28;20493;-69
2021/12/01 00:04:07;;;;;;;4.77;2.13;;;4.10;99.90;;;;;;5095045;28;20497;-70
2021/12/01 00:06:34;;;;;;;6.97;2.23;;;4.10;99.90;;;;;;5094949;28;21012;-70
2021/12/01 00:09:01;;;;;;;4.87;1.83;;;4.10;99.90;;;;;;5095063;28;20459;-70
2021/12/01 00:11:28;;;;;;;5.67;2.10;;;4.10;99.90;;;;;;5094876;28;20926;-70
2021/12/01 00:13:55;;;;;;;7.63;2.53;;;4.10;99.90;;;;;;5094604;28;20517;-71
2021/12/01 00:16:23;;;;;;;8.13;2.97;;;4.10;99.90;;;;;;5094942;28;20509;-70
2021/12/01 00:18:51;;;;;;;2.13;1.53;;;4.20;99.90;;;;;;5094796;28;20463;-70
2021/12/01 00:21:19;;;;;;;6.90;2.57;;;4.10;99.90;;;;;;5094523;28;20546;-70
2021/12/01 00:23:45;;;;;;;6.03;1.80;;;4.10;99.90;;;;;;5094009;28;20502;-70
2021/12/01 00:26:12;;;;;;;6.40;2.30;;;4.20;99.90;;;;;;5094434;28;20454;-70
2021/12/01 00:28:40;;;;;;;7.10;2.07;;;4.10;99.90;;;;;;5094605;28;20460;-70
2021/12/01 00:31:08;;;;;;;5.57;1.50;;;4.10;99.90;;;;;;5094200;28;20547;-70
2021/12/01 00:33:35;;;;;;;8.87;2.13;;;4.10;99.90;;;;;;5094760;28;20461;-70
2021/12/01 00:36:04;;;;;;;6.23;2.10;;;4.10;99.90;;;;;;5094319;28;20556;-70
2021/12/01 00:38:31;;;;;;;4.73;1.90;;;4.10;99.90;;;;;;5094823;28;20512;-70
2021/12/01 00:41:02;;;;;;;11.23;2.40;;;4.20;99.90;;;;;;5094466;28;20527;-70
2021/12/01 00:43:29;;;;;;;4.73;1.80;;;4.10;99.90;;;;;;5094584;28;20456;-71
2021/12/01 00:45:56;;;;;;;4.90;2.00;;;4.20;99.90;;;;;;5094480;28;20817;-70
2021/12/01 00:48:24;;;;;;;4.40;1.90;;;4.20;99.90;;;;;;5094576;28;20461;-70
2021/12/01 00:50:52;;;;;;;8.90;2.13;;;4.10;99.90;;;;;;5094635;28;20896;-69
2021/12/01 00:53:21;;;;;;;2.63;1.53;;;4.10;99.90;;;;;;5094311;28;20453;-69
2021/12/01 00:55:48;;;;;;;5.43;1.70;;;4.20;99.90;;;;;;5094950;28;20529;-69
2021/12/01 00:58:16;;;;;;;7.03;1.93;;;4.20;99.90;;;;;;5095635;28;20493;-71
2021/12/01 01:00:44;;;;;;;6.30;1.57;;;4.20;99.90;;;;;;5095021;28;20483;-70
2021/12/01 01:03:11;;;;;;;4.87;1.93;;;4.20;99.90;;;;;;5094293;28;20808;-70
2021/12/01 01:05:38;;;;;;;2.70;1.60;;;4.20;99.90;;;;;;5094840;28;20860;-70
2021/12/01 01:08:07;;;;;;;6.20;2.00;;;4.20;99.90;;;;;;5094360;28;20514;-70
2021/12/01 01:11:07;;;;;;;4.20;2.30;;;4.30;99.90;;;;;;5094082;28;20481;-70
2021/12/01 01:16:25;;;;;;;8.83;2.43;;;4.30;99.90;;;;;;5094684;28;20570;-70
2021/12/01 01:18:55;;;;;;;14.77;1.97;;;4.30;99.90;;;;;;5094733;28;20905;-70
2021/12/01 01:21:23;;;;;;;3.50;1.97;;;4.30;99.90;;;;;;5094329;28;20436;-71
2021/12/01 01:23:50;;;;;;;7.57;2.10;;;4.30;99.90;;;;;;5093852;28;20490;-70
2021/12/01 01:26:21;;;;;;;11.80;2.77;;;4.30;99.90;;;;;;5094405;28;20490;-70
2021/12/01 01:28:48;;;;;;;4.03;1.80;;;4.30;99.90;;;;;;5094150;28;20471;-70
2021/12/01 01:31:17;;;;;;;5.23;1.70;;;4.20;99.90;;;;;;5094144;28;20488;-71
2021/12/01 01:33:44;;;;;;;6.97;2.27;;;4.20;99.90;;;;;;5094238;28;20468;-69
2021/12/01 01:36:12;;;;;;;11.43;2.20;;;4.20;99.90;;;;;;5097643;28;20568;-71
2021/12/01 01:38:39;;;;;;;11.43;2.77;;;4.30;99.90;;;;;;5097621;28;20527;-71
2021/12/01 01:41:09;;;;;;;6.63;2.23;;;4.20;99.90;;;;;;5097649;28;20459;-70
2021/12/01 01:43:39;;;;;;;6.03;2.37;;;4.20;99.90;;;;;;5098318;28;20457;-70
2021/12/01 01:46:07;;;;;;;7.67;1.83;;;4.20;99.90;;;;;;5097778;28;20513;-70
2021/12/01 01:48:45;;;;;;;5.73;1.90;;;4.20;99.90;;;;;;5098562;28;20512;-70
2021/12/01 01:51:12;;;;;;;11.43;2.40;;;4.30;99.90;;;;;;5097678;28;20525;-70
2021/12/01 01:53:39;;;;;;;7.97;1.90;;;4.30;99.90;;;;;;5097739;28;20457;-70
2021/12/01 01:56:08;;;;;;;8.00;2.07;;;4.20;99.90;;;;;;5097088;28;20479;-70
2021/12/01 01:58:37;;;;;;;6.53;2.10;;;4.20;99.90;;;;;;5097363;28;20512;-69
2021/12/01 02:01:07;;;;;;;4.33;1.93;;;4.20;99.90;;;;;;5097543;28;20719;-69
2021/12/01 02:03:37;;;;;;;8.03;2.20;;;4.20;99.90;;;;;;5097427;28;20454;-71
2021/12/01 02:06:05;;;;;;;13.53;3.00;;;4.20;99.90;;;;;;5097397;28;20497;-70
2021/12/01 02:08:33;;;;;;;6.17;2.00;;;4.10;99.90;;;;;;5097277;28;20454;-71
2021/12/01 02:11:02;;;;;;;11.17;3.03;;;4.10;99.90;;;;;;5097441;28;20782;-70
2021/12/01 02:13:29;;;;;;;11.60;3.20;;;4.10;99.90;;;;;;5097234;28;20546;-71
2021/12/01 02:15:58;;;;;;;6.03;1.80;;;4.20;99.90;;;;;;5096947;28;20519;-71
2021/12/01 02:18:26;;;;;;;7.80;2.53;;;4.20;99.90;;;;;;5097212;28;20485;-71
2021/12/01 02:21:13;;;;;;;7.40;2.40;;;4.10;99.90;;;;;;5096961;28;20935;-71
2021/12/01 02:23:44;;;;;;;8.40;2.87;;;4.20;99.90;;;;;;5096841;28;20540;-70
2021/12/01 02:26:12;;;;;;;7.80;2.73;;;4.10;99.90;;;;;;5097244;28;20778;-70
2021/12/01 02:28:40;;;;;;;11.40;2.40;;;4.10;99.90;;;;;;5097185;28;20470;-69
2021/12/01 02:31:07;;;;;;;7.13;2.00;;;4.00;99.90;;;;;;5096941;28;20868;-71
2021/12/01 02:33:34;;;;;;;8.33;2.63;;;4.00;99.90;;;;;;5097699;28;20804;-71
2021/12/01 02:36:02;;;;;;;5.67;2.10;;;4.00;99.90;;;;;;5097017;28;20614;-71
2021/12/01 02:38:31;;;;;;;12.43;2.33;;;4.00;99.90;;;;;;5097181;28;20490;-71
2021/12/01 02:40:58;;;;;;;8.37;2.10;;;4.00;99.90;;;;;;5096348;28;20531;-70
2021/12/01 02:43:24;;;;;;;7.17;3.03;;;4.10;99.90;;;;;;5096945;28;20806;-71
2021/12/01 02:45:53;;;;;;;6.70;3.10;;;4.10;99.90;;;;;;5095923;28;20906;-71
2021/12/01 02:48:21;;;;;;;14.40;2.70;;;4.10;99.90;;;;;;5096669;28;20537;-71
2021/12/01 02:50:50;;;;;;;12.37;2.87;;;4.10;99.90;;;;;;5096727;28;20538;-71
2021/12/01 02:53:20;;;;;;;6.20;2.50;;;4.10;99.90;;;;;;5096783;28;20505;-71
2021/12/01 02:55:54;;;;;;;10.20;2.67;;;4.10;99.90;;;;;;5097227;28;20455;-70
2021/12/01 02:58:22;;;;;;;13.67;2.73;;;4.10;99.90;;;;;;5096561;28;20468;-70
2021/12/01 03:00:50;;;;;;;11.87;2.60;;;4.10;99.90;;;;;;5096208;28;20484;-71
2021/12/01 03:03:18;;;;;;;12.03;3.20;;;4.10;99.90;;;;;;5096994;28;20552;-70
2021/12/01 03:05:47;;;;;;;11.00;2.70;;;4.10;99.90;;;;;;5096564;28;20518;-71
2021/12/01 03:08:16;;;;;;;10.47;2.60;;;4.10;99.90;;;;;;5096165;28;20835;-70
2021/12/01 03:10:45;;;;;;;8.20;2.40;;;4.10;99.90;;;;;;5095908;28;20461;-70
2021/12/01 03:13:14;;;;;;;12.10;3.50;;;4.10;99.90;;;;;;5096214;28;20825;-69
2021/12/01 03:15:42;;;;;;;12.17;3.03;;;4.10;99.90;;;;;;5095863;28;20458;-70
2021/12/01 03:18:09;;;;;;;9.77;2.40;;;4.10;99.90;;;;;;5096360;28;20479;-70
2021/12/01 03:20:36;;;;;;;7.60;2.67;;;4.10;99.90;;;;;;5096463;28;20828;-70
2021/12/01 03:23:03;;;;;;;12.30;2.47;;;4.20;99.90;;;;;;5096303;28;20892;-70
2021/12/01 03:25:31;;;;;;;5.67;2.20;;;4.10;99.90;;;;;;5095911;28;20453;-70
2021/12/01 03:27:58;;;;;;;6.23;2.80;;;4.20;99.90;;;;;;5095585;28;20455;-70
2021/12/01 03:30:26;;;;;;;8.37;2.10;;;4.20;99.90;;;;;;5095990;28;20489;-70
2021/12/01 03:32:53;;;;;;;11.43;2.17;;;4.20;99.90;;;;;;5095571;28;20495;-70
2021/12/01 03:35:21;;;;;;;11.93;2.17;;;4.20;99.90;;;;;;5095768;28;20460;-70
2021/12/01 03:37:48;;;;;;;9.50;2.77;;;4.10;99.90;;;;;;5095771;28;20511;-72
2021/12/01 03:40:16;;;;;;;6.13;2.20;;;4.10;99.90;;;;;;5095892;28;20455;-70
2021/12/01 03:42:44;;;;;;;11.40;2.43;;;4.10;99.90;;;;;;5095296;28;20508;-70
2021/12/01 03:45:14;;;;;;;5.30;2.23;;;4.10;99.90;;;;;;5095721;28;20454;-71
2021/12/01 03:47:43;;;;;;;8.93;2.97;;;4.20;99.90;;;;;;5096790;28;20777;-70
2021/12/01 03:50:13;;;;;;;9.10;3.30;;;4.20;99.90;;;;;;5095574;28;20537;-70
2021/12/01 03:52:40;;;;;;;8.30;2.20;;;4.20;99.90;;;;;;5095373;28;20445;-70
2021/12/01 03:55:09;;;;;;;5.63;2.63;;;4.20;99.90;;;;;;5095025;28;20844;-72
2021/12/01 03:57:36;;;;;;;7.67;2.47;;;4.20;99.90;;;;;;5094554;28;20852;-70
2021/12/01 04:00:10;;;;;;;9.80;3.00;;;4.20;99.90;;;;;;5094957;28;20521;-70
2021/12/01 04:02:36;;;;;;;8.10;2.40;;;4.30;99.90;;;;;;5095014;28;20439;-70
2021/12/01 04:05:06;;;;;;;8.30;2.40;;;4.30;99.90;;;;;;5095026;28;20464;-70
2021/12/01 04:07:33;;;;;;;10.37;2.47;;;4.30;99.90;;;;;;5095367;28;20524;-70
2021/12/01 04:10:01;;;;;;;12.73;2.73;;;4.30;99.90;;;;;;5095132;28;20494;-69
2021/12/01 04:12:28;;;;;;;14.63;2.60;;;4.30;99.90;;;;;;5094963;28;20508;-70
2021/12/01 04:14:55;;;;;;;9.70;2.87;;;4.30;99.90;;;;;;5095151;28;20501;-69
2021/12/01 04:17:22;;;;;;;11.07;2.83;;;4.30;99.90;;;;;;5094803;28;20475;-70
2021/12/01 04:19:49;;;;;;;6.77;3.03;;;4.30;99.90;;;;;;5095053;28;20463;-70
2021/12/01 04:22:17;;;;;;;13.73;3.13;;;4.30;99.90;;;;;;5095090;28;20779;-70
2021/12/01 04:24:44;;;;;;;11.43;3.73;;;4.30;99.90;;;;;;5095017;28;20509;-70
2021/12/01 04:27:12;;;;;;;16.07;2.93;;;4.30;99.90;;;;;;5095370;28;20833;-69
2021/12/01 04:29:40;;;;;;;14.17;3.33;;;4.40;99.90;;;;;;5094833;28;20461;-70
2021/12/01 04:32:08;;;;;;;10.63;2.60;;;4.40;99.90;;;;;;5094742;28;20768;-70
2021/12/01 04:34:35;;;;;;;7.97;2.40;;;4.40;99.90;;;;;;5095226;28;20785;-70
2021/12/01 04:37:02;;;;;;;10.40;3.63;;;4.40;99.90;;;;;;5095070;28;20860;-70
2021/12/01 04:39:31;;;;;;;14.53;3.80;;;4.40;99.90;;;;;;5094833;28;20955;-70
2021/12/01 04:42:04;;;;;;;9.73;3.60;;;4.40;99.90;;;;;;5094974;28;20495;-70
2021/12/01 04:44:32;;;;;;;18.57;3.33;;;4.40;99.90;;;;;;5094758;28;20532;-70
2021/12/01 04:47:02;;;;;;;13.53;3.87;;;4.40;99.90;;;;;;5094338;28;20463;-71
2021/12/01 04:49:31;;;;;;;10.33;3.10;;;4.30;99.90;;;;;;5094555;28;20455;-70
2021/12/01 04:52:00;;;;;;;11.00;3.73;;;4.20;99.90;;;;;;5094589;28;20805;-70
2021/12/01 04:54:28;;;;;;;11.00;3.23;;;4.20;99.90;;;;;;5094312;28;20452;-70
2021/12/01 04:56:58;;;;;;;8.87;3.53;;;4.10;99.90;;;;;;5094172;28;20506;-70
2021/12/01 04:59:25;;;;;;;12.50;2.73;;;4.10;99.90;;;;;;5094807;28;20770;-71
2021/12/01 05:01:54;;;;;;;13.60;4.37;;;4.10;99.90;;;;;;5093884;28;20463;-70
2021/12/01 05:04:21;;;;;;;10.93;3.80;;;4.10;99.90;;;;;;5094097;28;20505;-70
2021/12/01 05:06:49;;;;;;;9.20;3.00;;;4.10;99.90;;;;;;5094201;28;20460;-70
2021/12/01 05:09:16;;;;;;;8.20;2.93;;;4.10;99.90;;;;;;5096790;28;20519;-70
2021/12/01 05:11:43;;;;;;;12.63;3.30;;;4.10;99.90;;;;;;5098196;28;20486;-70
2021/12/01 05:14:12;;;;;;;11.00;3.63;;;4.10;99.90;;;;;;5098212;28;20519;-70
2021/12/01 05:16:39;;;;;;;9.40;5.40;;;4.10;99.90;;;;;;5098200;28;20458;-69
2021/12/01 05:19:06;;;;;;;13.87;4.10;;;4.20;99.90;;;;;;5098057;28;20497;-69
2021/12/01 05:21:34;;;;;;;7.57;3.23;;;4.20;99.90;;;;;;5097679;28;20491;-70
2021/12/01 05:24:01;;;;;;;8.10;2.60;;;4.20;99.90;;;;;;5097805;28;20562;-70
2021/12/01 05:26:32;;;;;;;6.73;3.10;;;4.30;99.90;;;;;;5097832;28;20531;-70
2021/12/01 05:28:59;;;;;;;12.93;3.17;;;4.30;99.90;;;;;;5097736;28;20725;-69
2021/12/01 05:31:27;;;;;;;10.50;3.47;;;4.20;99.90;;;;;;5097586;28;20530;-69
2021/12/01 05:33:54;;;;;;;9.17;3.07;;;4.20;99.90;;;;;;5097908;28;20545;-70
2021/12/01 05:36:21;;;;;;;11.43;3.03;;;4.20;99.90;;;;;;5097830;28;20459;-70
2021/12/01 05:38:48;;;;;;;7.57;3.23;;;4.20;99.90;;;;;;5097772;28;20490;-69
2021/12/01 05:41:16;;;;;;;16.43;4.20;;;4.30;99.90;;;;;;5097984;28;20490;-69
2021/12/01 05:43:43;;;;;;;7.73;3.10;;;4.30;99.90;;;;;;5097985;28;20981;-71
2021/12/01 05:46:10;;;;;;;6.10;2.70;;;4.30;99.90;;;;;;5097656;28;20465;-70
2021/12/01 05:48:39;;;;;;;10.30;3.30;;;4.30;99.90;;;;;;5098015;28;20451;-70
2021/12/01 05:51:06;;;;;;;24.40;4.40;;;4.30;99.90;;;;;;5097627;28;20462;-71
2021/12/01 05:53:33;;;;;;;8.70;2.80;;;4.30;99.90;;;;;;5098415;28;20516;-70
2021/12/01 05:56:00;;;;;;;8.37;3.57;;;4.30;99.90;;;;;;5097919;28;20923;-70
2021/12/01 05:58:27;;;;;;;11.13;3.73;;;4.30;99.90;;;;;;5097237;28;20533;-70
2021/12/01 06:00:54;;;;;;;9.67;3.13;;;4.30;99.90;;;;;;5097857;28;20458;-70
2021/12/01 06:03:24;;;;;;;6.83;3.33;;;4.30;99.90;;;;;;5098440;28;20458;-71
2021/12/01 06:05:52;;;;;;;6.73;3.17;;;4.30;99.90;;;;;;5098089;28;20492;-71
2021/12/01 06:08:19;;;;;;;8.50;2.80;;;4.30;99.90;;;;;;5097923;28;20454;-71
2021/12/01 06:10:47;;;;;;;7.60;3.53;;;4.30;99.90;;;;;;5098347;28;20499;-71
2021/12/01 06:13:16;;;;;;;7.67;3.53;;;4.30;99.90;;;;;;5097984;28;20486;-70
2021/12/01 06:15:43;;;;;;;7.50;3.20;;;4.30;99.90;;;;;;5096993;28;20791;-71
2021/12/01 06:18:11;;;;;;;10.13;4.00;;;4.40;99.90;;;;;;5097261;28;20479;-71
2021/12/01 06:20:38;;;;;;;7.63;3.53;;;4.40;99.90;;;;;;5095997;28;20454;-70
2021/12/01 06:23:07;;;;;;;11.70;5.00;;;4.40;99.90;;;;;;5096410;28;20747;-70
2021/12/01 06:25:34;;;;;;;8.43;3.87;;;4.40;99.90;;;;;;5096821;28;20462;-70
2021/12/01 06:28:02;;;;;;;12.57;5.10;;;4.40;99.90;;;;;;5096829;28;20479;-70
2021/12/01 06:30:32;;;;;;;7.83;5.07;;;4.50;99.90;;;;;;5096158;28;20494;-70
2021/12/01 06:32:59;;;;;;;12.23;6.27;;;4.50;99.90;;;;;;5096762;28;20447;-71
2021/12/01 06:35:29;;;;;;;7.93;5.33;;;4.40;99.90;;;;;;5096809;28;20937;-70
2021/12/01 06:37:56;;;;;;;8.73;6.10;;;4.40;99.90;;;;;;5096513;28;20586;-70
2021/12/01 06:40:26;;;;;;;10.50;5.87;;;4.40;99.90;;;;;;5096460;28;20605;-70
2021/12/01 06:42:53;;;;;;;10.40;5.70;;;4.40;99.90;;;;;;5096642;28;20516;-70
2021/12/01 06:45:21;;;;;;;13.90;5.97;;;4.40;99.90;;;;;;5096120;28;20541;-71
2021/12/01 06:47:48;;;;;;;17.57;5.97;;;4.40;99.90;;;;;;5096096;28;20526;-70
2021/12/01 06:50:16;;;;;;;6.87;5.50;;;4.40;99.90;;;;;;5095921;28;20455;-70
2021/12/01 06:52:43;;;;;;;12.63;5.87;;;4.40;99.90;;;;;;5095695;28;20863;-70
2021/12/01 06:55:10;;;;;;;24.33;8.60;;;4.50;99.90;;;;;;5096077;28;20970;-70
2021/12/01 06:57:39;;;;;;;15.60;7.37;;;4.50;99.90;;;;;;5095826;28;20454;-70
2021/12/01 07:00:09;;;;;;;12.60;6.67;;;4.60;99.90;;;;;;5095671;28;20458;-70
2021/12/01 07:02:36;;;;;;;10.80;6.90;;;4.60;99.90;;;;;;5096146;28;20455;-70
2021/12/01 07:05:03;;;;;;;12.33;5.97;;;4.60;99.90;;;;;;5095984;28;20460;-70
2021/12/01 07:07:30;;;;;;;10.23;5.30;;;4.70;99.90;;;;;;5096082;28;20492;-72
2021/12/01 07:09:57;;;;;;;14.37;6.07;;;4.70;99.90;;;;;;5096025;28;20483;-70
2021/12/01 07:12:24;;;;;;;9.47;6.37;;;4.70;99.90;;;;;;5095932;28;21032;-71
2021/12/01 07:14:53;;;;;;;14.80;6.47;;;4.70;99.90;;;;;;5095694;28;20790;-71
2021/12/01 07:17:21;;;;;;;7.40;6.13;;;4.60;99.90;;;;;;5095330;28;20826;-70
2021/12/01 07:19:48;;;;;;;9.30;6.30;;;4.70;99.90;;;;;;5095232;28;20479;-71
2021/12/01 07:22:16;;;;;;;7.13;6.10;;;4.80;99.90;;;;;;5095432;28;21164;-71
2021/12/01 07:24:43;;;;;;;7.70;6.03;;;4.80;99.90;;;;;;5095933;28;20502;-71
2021/12/01 07:27:10;;;;;;;10.50;6.87;;;4.90;99.90;;;;;;5095295;28;20524;-70
2021/12/01 07:29:38;;;;;;;7.80;6.30;;;4.90;99.90;;;;;;5095551;28;20813;-71
2021/12/01 07:32:07;;;;;;;9.50;6.50;;;4.80;99.90;;;;;;5096007;28;20475;-71
2021/12/01 07:34:41;;;;;;;9.73;7.00;;;4.80;99.90;;;;;;5096757;28;20597;-71
2021/12/01 07:37:08;;;;;;;8.13;6.80;;;4.80;99.90;;;;;;5095413;28;20827;-70
2021/12/01 07:39:35;;;;;;;10.70;7.27;;;4.90;99.90;;;;;;5095590;28;20484;-71
2021/12/01 07:42:02;;;;;;;13.93;6.87;;;4.80;99.90;;;;;;5095346;28;20544;-70
2021/12/01 07:44:29;;;;;;;9.33;7.07;;;4.90;99.90;;;;;;5095277;28;20519;-71
2021/12/01 07:46:56;;;;;;;10.17;7.40;;;4.90;99.90;;;;;;5094759;28;20520;-70
2021/12/01 07:49:25;;;;;;;12.90;8.60;;;5.00;99.90;;;;;;5095356;28;20863;-70
2021/12/01 07:51:52;;;;;;;10.20;7.83;;;5.00;99.90;;;;;;5095034;28;20521;-70
2021/12/01 07:54:19;;;;;;;9.43;7.23;;;5.10;99.90;;;;;;5095644;28;20809;-70
2021/12/01 07:56:46;;;;;;;11.20;7.00;;;5.10;99.90;;;;;;5095115;28;20457;-70
2021/12/01 07:59:15;;;;;;;12.00;8.13;;;5.20;99.90;;;;;;5095126;28;20621;-70
2021/12/01 08:01:42;;;;;;;13.10;9.03;;;5.20;99.90;;;;;;5094823;28;20539;-70
2021/12/01 08:04:09;;;;;;;10.97;7.43;;;5.30;99.90;;;;;;5094958;28;20458;-70
2021/12/01 08:06:39;;;;;;;10.17;8.60;;;5.40;99.90;;;;;;5094624;28;20564;-70
2021/12/01 08:09:07;;;;;;;10.60;7.97;;;5.50;99.90;;;;;;5094374;28;20502;-70
2021/12/01 08:11:34;;;;;;;13.00;8.13;;;5.50;99.90;;;;;;5094840;28;20468;-71
2021/12/01 08:14:02;;;;;;;9.43;8.20;;;5.60;99.90;;;;;;5094496;28;20765;-71
2021/12/01 08:16:29;;;;;;;9.43;7.63;;;5.70;99.90;;;;;;5094779;28;20809;-70
2021/12/01 08:18:56;;;;;;;11.13;8.87;;;5.80;99.90;;;;;;5094180;28;20521;-70
2021/12/01 08:21:23;;;;;;;11.50;8.80;;;5.80;99.90;;;;;;5094745;28;20496;-70
2021/12/01 08:23:52;;;;;;;9.90;7.80;;;5.90;99.90;;;;;;5094314;28;20485;-70
2021/12/01 08:26:19;;;;;;;9.93;8.93;;;5.90;99.90;;;;;;5094125;28;20458;-70
2021/12/01 08:28:46;;;;;;;13.03;9.03;;;6.00;99.90;;;;;;5094252;28;20523;-70
2021/12/01 08:31:14;;;;;;;12.27;9.17;;;6.00;99.90;;;;;;5094937;28;20777;-71
2021/12/01 08:33:41;;;;;;;10.87;9.07;;;6.10;99.90;;;;;;5094516;28;20526;-71
2021/12/01 08:36:09;;;;;;;12.30;9.47;;;6.10;99.90;;;;;;5094093;28;20456;-70
2021/12/01 08:38:37;;;;;;;11.73;9.70;;;6.20;99.90;;;;;;5093910;28;20513;-70
2021/12/01 08:41:06;;;;;;;13.23;8.97;;;6.20;99.90;;;;;;5094222;28;20945;-68
2021/12/01 08:43:33;;;;;;;12.23;9.20;;;6.30;99.90;;;;;;5097157;28;20826;-68
2021/12/01 08:46:01;;;;;;;10.73;8.93;;;6.40;99.90;;;;;;5100796;28;20567;-68
2021/12/01 08:48:28;;;;;;;10.77;8.60;;;6.40;99.90;;;;;;5100820;28;20461;-68
2021/12/01 08:50:56;;;;;;;11.70;8.60;;;6.40;99.90;;;;;;5100906;28;20464;-68
2021/12/01 08:53:23;;;;;;;10.30;8.67;;;6.50;99.90;;;;;;5101146;28;20454;-68
2021/12/01 08:55:51;;;;;;;11.00;9.90;;;6.50;99.90;;;;;;5100860;28;20458;-68
2021/12/01 08:58:20;;;;;;;9.43;8.40;;;6.50;99.90;;;;;;5101170;28;20478;-69
2021/12/01 09:00:48;;;;;;;12.60;8.37;;;6.50;99.90;;;;;;5101261;28;20465;-68
2021/12/01 09:03:17;;;;;;;9.57;8.47;;;6.60;99.90;;;;;;5100455;28;20458;-67
2021/12/01 09:05:45;;;;;;;8.33;7.17;;;6.60;99.90;;;;;;5100631;28;20469;-69
2021/12/01 09:08:13;;;;;;;8.60;7.37;;;6.60;99.90;;;;;;5100932;28;20458;-69
2021/12/01 09:10:40;;;;;;;8.50;7.53;;;6.60;99.90;;;;;;5100649;28;20751;-68
2021/12/01 09:13:09;;;;;;;7.17;6.47;;;6.60;99.90;;;;;;5100851;28;20461;-68
2021/12/01 09:15:38;;;;;;;10.43;7.10;;;6.60;99.90;;;;;;5100932;28;20474;-68
2021/12/01 09:18:06;;;;;;;7.63;6.93;;;6.60;99.90;;;;;;5100835;28;20453;-68
2021/12/01 09:20:33;;;;;;;7.27;6.57;;;6.60;99.90;;;;;;5100794;28;20534;-69
2021/12/01 09:23:01;;;;;;;6.20;5.57;;;6.60;99.90;;;;;;5100412;28;20505;-69
2021/12/01 09:25:28;;;;;;;7.87;6.97;;;6.60;99.90;;;;;;5100795;28;20739;-70
2021/12/01 09:27:55;;;;;;;11.40;6.40;;;6.60;99.90;;;;;;5100866;28;20511;-68
2021/12/01 09:30:22;;;;;;;6.83;6.13;;;6.70;99.90;;;;;;5101170;28;20904;-69
2021/12/01 09:32:52;;;;;;;5.80;5.00;;;6.70;99.90;;;;;;5100757;28;20513;-69
2021/12/01 09:35:19;;;;;;;6.90;5.33;;;6.70;99.90;;;;;;5100418;28;20519;-69
2021/12/01 09:37:46;;;;;;;4.77;4.37;;;6.60;99.90;;;;;;5100791;28;20455;-74
2021/12/01 09:40:17;;;;;;;4.60;4.20;;;6.70;99.90;;;;;;5100744;28;20495;-68
2021/12/01 09:42:49;;;;;;;5.60;4.97;;;6.70;99.90;;;;;;5100255;28;20446;-68
2021/12/01 09:45:17;;;;;;;5.00;4.13;;;6.70;99.90;;;;;;5101277;28;20803;-68
2021/12/01 09:47:44;;;;;;;5.00;4.10;;;6.70;99.90;;;;;;5100146;28;20459;-68
2021/12/01 09:50:13;;;;;;;4.20;3.80;;;6.70;99.90;;;;;;5100715;28;20450;-69
2021/12/01 09:52:40;;;;;;;4.00;3.60;;;6.70;99.90;;;;;;5100011;28;20461;-69
2021/12/01 09:55:11;;;;;;;5.27;3.87;;;6.70;99.90;;;;;;5098595;28;20772;-68
2021/12/01 09:57:38;;;;;;;3.10;2.90;;;6.70;99.90;;;;;;5097357;28;20481;-68
2021/12/01 10:00:10;;;;;;;4.20;3.80;;;6.80;99.90;;;;;;5097050;28;20488;-68
2021/12/01 10:02:37;;;;;;;4.00;3.60;;;6.80;99.90;;;;;;5097099;28;20982;-69
2021/12/01 10:05:04;;;;;;;3.57;3.27;;;6.80;99.90;;;;;;5097325;28;20515;-69
2021/12/01 10:07:34;;;;;;;3.50;3.20;;;6.90;99.90;;;;;;5097060;28;20458;-68
2021/12/01 10:10:08;;;;;;;5.10;4.60;;;6.90;99.90;;;;;;5097158;28;20434;-69
2021/12/01 10:12:47;;;;;;;3.83;3.50;;;6.90;99.90;;;;;;5097333;28;20762;-69
2021/12/01 10:15:14;;;;;;;3.50;3.17;;;6.90;99.90;;;;;;5096902;28;20457;-69
2021/12/01 10:17:41;;;;;;;3.70;3.20;;;7.00;99.90;;;;;;5096782;28;20466;-68
2021/12/01 10:20:14;;;;;;;3.10;2.80;;;7.00;99.90;;;;;;5096449;28;20478;-68
2021/12/01 10:23:10;;;;;;;2.67;2.47;;;7.00;99.90;;;;;;5096522;28;20490;-68
2021/12/01 10:25:37;;;;;;;3.50;3.20;;;7.10;99.90;;;;;;5096528;28;20435;-68
2021/12/01 10:28:04;;;;;;;3.20;2.83;;;7.10;99.90;;;;;;5096817;28;20929;-68
2021/12/01 10:30:40;;;;;;;2.87;2.67;;;7.10;99.90;;;;;;5096444;28;20584;-68
2021/12/01 10:33:12;;;;;;;3.30;2.70;;;7.20;99.90;;;;;;5096708;28;20466;-68
2021/12/01 10:35:42;;;;;;;4.60;3.30;;;7.20;99.90;;;;;;5097616;28;20459;-68
2021/12/01 10:38:13;;;;;;;3.47;2.60;;;7.10;99.90;;;;;;5097994;28;20449;-68
2021/12/01 10:40:41;;;;;;;3.37;3.07;;;7.10;99.90;;;;;;5096827;28;20871;-68
2021/12/01 10:43:10;;;;;;;4.23;3.13;;;7.10;99.90;;;;;;5096334;28;20891;-69
2021/12/01 10:45:39;;;;;;;3.70;3.40;;;7.00;99.90;;;;;;5096427;28;20528;-69
2021/12/01 10:48:09;;;;;;;4.33;3.93;;;7.00;99.90;;;;;;5096806;28;20461;-68
2021/12/01 10:50:38;;;;;;;5.30;3.97;;;7.00;99.90;;;;;;5096276;28;20451;-68
2021/12/01 10:53:09;;;;;;;4.60;4.20;;;7.00;99.90;;;;;;5096046;28;20519;-68
2021/12/01 10:55:43;;;;;;;4.37;4.07;;;7.00;99.90;;;;;;5096250;28;20438;-68
2021/12/01 10:58:10;;;;;;;4.00;3.70;;;7.10;99.90;;;;;;5096251;28;20451;-68
2021/12/01 11:00:41;;;;;;;4.50;4.10;;;7.10;99.90;;;;;;5096268;28;20491;-68
2021/12/01 11:03:10;;;;;;;5.30;4.50;;;7.10;99.90;;;;;;5096010;28;20455;-68
2021/12/01 11:05:40;;;;;;;5.00;4.57;;;7.00;99.90;;;;;;5095841;28;20519;-68
2021/12/01 11:08:13;;;;;;;4.73;4.33;;;7.00;99.90;;;;;;5095778;28;20923;-69
2021/12/01 11:10:43;;;;;;;4.90;4.50;;;7.00;99.90;;;;;;5095688;28;20503;-68
2021/12/01 11:13:11;;;;;;;4.70;4.30;;;7.00;99.90;;;;;;5095566;28;20438;-68
2021/12/01 11:15:41;;;;;;;6.13;5.17;;;6.90;99.90;;;;;;5095440;28;20464;-68
2021/12/01 11:18:11;;;;;;;4.80;4.30;;;6.90;99.90;;;;;;5095604;28;20942;-68
2021/12/01 11:20:43;;;;;;;5.93;4.97;;;6.90;99.90;;;;;;5096734;28;20543;-69
2021/12/01 11:23:13;;;;;;;5.50;5.00;;;6.80;99.90;;;;;;5097585;28;20485;-68
2021/12/01 11:25:43;;;;;;;5.30;4.80;;;6.90;99.90;;;;;;5096480;28;20438;-68
2021/12/01 11:28:13;;;;;;;6.50;4.70;;;6.80;99.90;;;;;;5095394;28;20527;-69
2021/12/01 11:30:41;;;;;;;5.10;4.70;;;6.90;99.90;;;;;;5095131;28;20476;-68
2021/12/01 11:33:13;;;;;;;4.87;4.40;;;6.90;99.90;;;;;;5095425;28;20537;-68
2021/12/01 11:35:41;;;;;;;5.50;4.00;;;6.90;99.90;;;;;;5095375;28;20510;-67
2021/12/01 11:38:10;;;;;;;6.73;4.17;;;6.90;99.90;;;;;;5095804;28;20453;-69
2021/12/01 11:40:37;;;;;;;4.50;4.10;;;6.90;99.90;;;;;;5095405;28;20478;-68
2021/12/01 11:43:08;;;;;;;4.40;4.00;;;7.00;99.90;;;;;;5096145;28;20843;-68
2021/12/01 11:45:36;;;;;;;4.00;3.70;;;7.00;99.90;;;;;;5096339;28;20518;-69
2021/12/01 11:48:04;;;;;;;3.80;3.50;;;7.00;99.90;;;;;;5096287;28;20460;-68
2021/12/01 11:50:35;;;;;;;4.23;3.83;;;7.10;99.90;;;;;;5095848;28;20470;-69
2021/12/01 11:53:20;;;;;;;4.90;3.23;;;7.10;99.90;;;;;;5094955;28;20449;-69
2021/12/01 11:55:57;;;;;;;6.07;3.50;;;7.10;99.90;;;;;;5094190;28;20925;-68
2021/12/01 11:58:49;;;;;;;3.70;3.40;;;7.10;99.90;;;;;;5094931;28;20528;-68
2021/12/01 12:01:39;;;;;;;4.50;3.70;;;7.10;99.90;;;;;;5094292;28;20467;-69
2021/12/01 12:04:34;;;;;;;3.67;3.13;;;7.10;99.90;;;;;;5095201;28;20455;-69
2021/12/01 12:07:04;;;;;;;3.10;2.80;;;7.10;99.90;;;;;;5094716;28;20442;-68
2021/12/01 12:09:31;;;;;;;3.47;3.13;;;7.10;99.90;;;;;;5094976;28;20624;-68
2021/12/01 12:12:10;;;;;;;2.57;2.37;;;7.10;99.90;;;;;;5094597;28;20447;-68
2021/12/01 12:14:49;;;;;;;3.00;2.80;;;7.20;99.90;;;;;;5094210;28;20454;-68
2021/12/01 12:17:18;;;;;;;2.67;2.43;;;7.20;99.90;;;;;;5094512;28;20497;-69
2021/12/01 12:20:02;;;;;;;3.07;2.77;;;7.20;99.90;;;;;;5093991;28;20484;-68
2021/12/01 12:22:52;;;;;;;3.07;2.87;;;7.30;99.90;;;;;;5094414;28;20524;-68
2021/12/01 12:25:51;;;;;;;2.30;2.10;;;7.30;99.90;;;;;;5094290;28;20804;-71
2021/12/01 12:28:31;;;;;;;2.60;2.33;;;7.30;99.90;;;;;;5094517;28;20472;-68
2021/12/01 12:31:03;;;;;;;3.00;2.80;;;7.30;99.90;;;;;;5094881;28;20488;-69
2021/12/01 12:33:32;;;;;;;2.53;2.30;;;7.30;99.90;;;;;;5094372;28;20436;-68
2021/12/01 12:36:01;;;;;;;4.00;2.40;;;7.40;99.90;;;;;;5094067;28;20461;-68
2021/12/01 12:38:29;;;;;;;2.60;2.40;;;7.40;99.90;;;;;;5094088;28;20548;-69
2021/12/01 12:41:11;;;;;;;4.67;2.03;;;7.50;99.90;;;;;;5094627;28;20847;-69
2021/12/01 12:43:40;;;;;;;9.10;2.30;;;7.50;99.90;;;;;;5094666;28;20443;-69
2021/12/01 12:46:16;;;;;;;2.80;1.93;;;7.50;99.90;;;;;;5093739;28;20460;-70
2021/12/01 12:48:46;;;;;;;3.30;2.20;;;7.60;99.90;;;;;;5094383;28;20447;-69
2021/12/01 12:51:19;;;;;;;2.50;2.00;;;7.70;99.90;;;;;;5094544;28;20457;-69
2021/12/01 12:54:17;;;;;;;1.90;1.73;;;7.70;99.90;;;;;;5094579;28;20899;-68
2021/12/01 12:56:54;;;;;;;1.70;1.60;;;7.70;99.90;;;;;;5088656;28;21010;-69
2021/12/01 12:59:31;;;;;;;3.10;2.20;;;7.70;99.90;;;;;;5095076;28;20488;-69
2021/12/01 13:02:33;;;;;;;2.33;2.10;;;7.70;99.90;;;;;;5093916;28;20453;-68
2021/12/01 13:05:02;;;;;;;2.70;2.13;;;7.70;99.90;;;;;;5093804;28;20515;-68
2021/12/01 13:07:56;;;;;;;3.40;2.27;;;7.80;99.90;;;;;;5094160;28;20458;-69